sensor_id;sensor_type;location;lat;lon;timestamp;P1;durP1;ratioP1;P2;durP2;ratioP2
23952;SDS011;12163;49.316;6.092;2023-11-22T00:00:15;7.50;;;5.72;;
23952;SDS011;12163;49.316;6.092;2023-11-22T00:02:42;8.70;;;5.60;;
23952;SDS011;12163;49.316;6.092;2023-11-22T00:05:08;8.27;;;5.63;;
23952;SDS011;12163;49.316;6.092;2023-11-22T00:07:37;10.68;;;5.85;;
23952;SDS011;12163;49.316;6.092;2023-11-22T00:10:04;8.75;;;5.57;;
23952;SDS011;12163;49.316;6.092;2023-11-22T00:12:31;7.53;;;4.90;;
23952;SDS011;12163;49.316;6.092;2023-11-22T00:15:04;7.47;;;4.70;;
23952;SDS011;12163;49.316;6.092;2023-11-22T00:17:32;6.15;;;4.25;;
23952;SDS011;12163;49.316;6.092;2023-11-22T00:20:00;5.90;;;4.70;;
23952;SDS011;12163;49.316;6.092;2023-11-22T00:22:30;7.25;;;5.43;;
23952;SDS011;12163;49.316;6.092;2023-11-22T00:24:58;8.23;;;5.13;;
23952;SDS011;12163;49.316;6.092;2023-11-22T00:27:27;8.63;;;5.18;;
23952;SDS011;12163;49.316;6.092;2023-11-22T00:29:56;6.70;;;5.10;;
23952;SDS011;12163;49.316;6.092;2023-11-22T00:32:22;6.10;;;4.50;;
23952;SDS011;12163;49.316;6.092;2023-11-22T00:34:49;6.47;;;5.10;;
23952;SDS011;12163;49.316;6.092;2023-11-22T00:37:16;6.25;;;5.15;;
23952;SDS011;12163;49.316;6.092;2023-11-22T00:39:42;5.35;;;4.78;;
23952;SDS011;12163;49.316;6.092;2023-11-22T00:42:09;8.52;;;4.78;;
23952;SDS011;12163;49.316;6.092;2023-11-22T00:44:36;8.07;;;5.38;;
23952;SDS011;12163;49.316;6.092;2023-11-22T00:47:02;4.15;;;3.58;;
23952;SDS011;12163;49.316;6.092;2023-11-22T00:49:29;6.43;;;3.95;;
23952;SDS011;12163;49.316;6.092;2023-11-22T00:51:56;4.57;;;3.15;;
23952;SDS011;12163;49.316;6.092;2023-11-22T00:54:26;4.18;;;2.80;;
23952;SDS011;12163;49.316;6.092;2023-11-22T00:56:52;4.88;;;2.63;;
23952;SDS011;12163;49.316;6.092;2023-11-22T00:59:19;3.90;;;1.88;;
23952;SDS011;12163;49.316;6.092;2023-11-22T01:01:46;5.28;;;1.60;;
23952;SDS011;12163;49.316;6.092;2023-11-22T01:04:12;2.67;;;1.63;;
23952;SDS011;12163;49.316;6.092;2023-11-22T01:06:39;3.42;;;1.42;;
23952;SDS011;12163;49.316;6.092;2023-11-22T01:09:07;1.88;;;1.38;;
23952;SDS011;12163;49.316;6.092;2023-11-22T01:11:35;2.28;;;1.20;;
23952;SDS011;12163;49.316;6.092;2023-11-22T01:14:01;1.85;;;1.17;;
23952;SDS011;12163;49.316;6.092;2023-11-22T01:16:28;2.22;;;1.10;;
23952;SDS011;12163;49.316;6.092;2023-11-22T01:18:55;1.58;;;1.08;;
23952;SDS011;12163;49.316;6.092;2023-11-22T01:21:21;1.52;;;1.00;;
23952;SDS011;12163;49.316;6.092;2023-11-22T01:23:48;1.85;;;1.33;;
23952;SDS011;12163;49.316;6.092;2023-11-22T01:26:14;2.80;;;1.38;;
23952;SDS011;12163;49.316;6.092;2023-11-22T01:28:43;3.30;;;1.52;;
23952;SDS011;12163;49.316;6.092;2023-11-22T01:31:11;2.20;;;1.88;;
23952;SDS011;12163;49.316;6.092;2023-11-22T01:33:39;2.15;;;1.48;;
23952;SDS011;12163;49.316;6.092;2023-11-22T01:36:06;2.25;;;1.75;;
23952;SDS011;12163;49.316;6.092;2023-11-22T01:38:33;4.00;;;1.58;;
23952;SDS011;12163;49.316;6.092;2023-11-22T01:41:00;1.90;;;1.70;;
23952;SDS011;12163;49.316;6.092;2023-11-22T01:43:27;2.88;;;1.98;;
23952;SDS011;12163;49.316;6.092;2023-11-22T01:45:54;2.97;;;2.08;;
23952;SDS011;12163;49.316;6.092;2023-11-22T01:48:22;3.00;;;1.90;;
23952;SDS011;12163;49.316;6.092;2023-11-22T01:50:49;5.00;;;1.90;;
23952;SDS011;12163;49.316;6.092;2023-11-22T01:53:16;3.85;;;2.30;;
23952;SDS011;12163;49.316;6.092;2023-11-22T01:55:43;3.58;;;2.33;;
23952;SDS011;12163;49.316;6.092;2023-11-22T01:58:11;2.35;;;1.90;;
23952;SDS011;12163;49.316;6.092;2023-11-22T02:00:45;2.95;;;2.10;;
23952;SDS011;12163;49.316;6.092;2023-11-22T02:03:16;2.67;;;2.10;;
23952;SDS011;12163;49.316;6.092;2023-11-22T02:05:43;3.53;;;2.47;;
23952;SDS011;12163;49.316;6.092;2023-11-22T02:08:11;3.88;;;2.28;;
23952;SDS011;12163;49.316;6.092;2023-11-22T02:10:39;3.38;;;2.15;;
23952;SDS011;12163;49.316;6.092;2023-11-22T02:13:06;3.75;;;2.20;;
23952;SDS011;12163;49.316;6.092;2023-11-22T02:15:34;6.00;;;2.33;;
23952;SDS011;12163;49.316;6.092;2023-11-22T02:18:01;2.92;;;2.05;;
23952;SDS011;12163;49.316;6.092;2023-11-22T02:20:38;3.50;;;2.38;;
23952;SDS011;12163;49.316;6.092;2023-11-22T02:23:09;6.05;;;2.00;;
23952;SDS011;12163;49.316;6.092;2023-11-22T02:25:37;3.25;;;1.40;;
23952;SDS011;12163;49.316;6.092;2023-11-22T02:28:04;3.03;;;2.00;;
23952;SDS011;12163;49.316;6.092;2023-11-22T02:30:30;4.05;;;1.80;;
23952;SDS011;12163;49.316;6.092;2023-11-22T02:32:57;3.55;;;1.92;;
23952;SDS011;12163;49.316;6.092;2023-11-22T02:35:24;3.50;;;2.28;;
23952;SDS011;12163;49.316;6.092;2023-11-22T02:37:51;2.15;;;1.83;;
23952;SDS011;12163;49.316;6.092;2023-11-22T02:40:18;3.67;;;2.20;;
23952;SDS011;12163;49.316;6.092;2023-11-22T02:42:46;3.28;;;1.85;;
23952;SDS011;12163;49.316;6.092;2023-11-22T02:45:17;4.28;;;2.50;;
23952;SDS011;12163;49.316;6.092;2023-11-22T02:47:45;3.80;;;2.30;;
23952;SDS011;12163;49.316;6.092;2023-11-22T02:50:13;4.18;;;2.25;;
23952;SDS011;12163;49.316;6.092;2023-11-22T02:52:40;3.90;;;2.05;;
23952;SDS011;12163;49.316;6.092;2023-11-22T02:55:07;6.57;;;2.58;;
23952;SDS011;12163;49.316;6.092;2023-11-22T02:57:37;2.53;;;2.10;;
23952;SDS011;12163;49.316;6.092;2023-11-22T03:00:06;2.95;;;2.30;;
23952;SDS011;12163;49.316;6.092;2023-11-22T03:02:41;3.08;;;2.17;;
23952;SDS011;12163;49.316;6.092;2023-11-22T03:05:08;5.95;;;2.50;;
23952;SDS011;12163;49.316;6.092;2023-11-22T03:07:39;7.25;;;2.80;;
23952;SDS011;12163;49.316;6.092;2023-11-22T03:10:09;5.63;;;2.53;;
23952;SDS011;12163;49.316;6.092;2023-11-22T03:12:36;4.18;;;2.88;;
23952;SDS011;12163;49.316;6.092;2023-11-22T03:15:03;3.75;;;2.65;;
23952;SDS011;12163;49.316;6.092;2023-11-22T03:17:31;2.95;;;2.38;;
23952;SDS011;12163;49.316;6.092;2023-11-22T03:19:59;5.53;;;2.60;;
23952;SDS011;12163;49.316;6.092;2023-11-22T03:22:27;3.10;;;2.50;;
23952;SDS011;12163;49.316;6.092;2023-11-22T03:24:57;6.57;;;2.80;;
23952;SDS011;12163;49.316;6.092;2023-11-22T03:27:24;5.88;;;2.85;;
23952;SDS011;12163;49.316;6.092;2023-11-22T03:29:52;3.78;;;2.80;;
23952;SDS011;12163;49.316;6.092;2023-11-22T03:32:19;5.93;;;2.88;;
23952;SDS011;12163;49.316;6.092;2023-11-22T03:34:45;5.20;;;2.67;;
23952;SDS011;12163;49.316;6.092;2023-11-22T03:37:12;5.65;;;3.10;;
23952;SDS011;12163;49.316;6.092;2023-11-22T03:39:39;4.70;;;3.33;;
23952;SDS011;12163;49.316;6.092;2023-11-22T03:42:06;4.68;;;3.22;;
23952;SDS011;12163;49.316;6.092;2023-11-22T03:44:32;5.20;;;3.20;;
23952;SDS011;12163;49.316;6.092;2023-11-22T03:46:59;4.38;;;3.10;;
23952;SDS011;12163;49.316;6.092;2023-11-22T03:49:26;5.60;;;3.42;;
23952;SDS011;12163;49.316;6.092;2023-11-22T03:51:53;5.15;;;3.60;;
23952;SDS011;12163;49.316;6.092;2023-11-22T03:54:19;5.25;;;3.78;;
23952;SDS011;12163;49.316;6.092;2023-11-22T03:56:46;6.03;;;3.65;;
23952;SDS011;12163;49.316;6.092;2023-11-22T03:59:13;6.97;;;3.70;;
23952;SDS011;12163;49.316;6.092;2023-11-22T04:01:39;5.35;;;3.60;;
23952;SDS011;12163;49.316;6.092;2023-11-22T04:04:06;10.40;;;4.13;;
23952;SDS011;12163;49.316;6.092;2023-11-22T04:06:34;6.05;;;3.90;;
23952;SDS011;12163;49.316;6.092;2023-11-22T04:09:00;4.28;;;3.88;;
23952;SDS011;12163;49.316;6.092;2023-11-22T04:11:28;5.70;;;4.40;;
23952;SDS011;12163;49.316;6.092;2023-11-22T04:13:55;7.45;;;4.40;;
23952;SDS011;12163;49.316;6.092;2023-11-22T04:16:22;7.13;;;4.05;;
23952;SDS011;12163;49.316;6.092;2023-11-22T04:18:49;6.60;;;3.80;;
23952;SDS011;12163;49.316;6.092;2023-11-22T04:21:16;7.60;;;4.30;;
23952;SDS011;12163;49.316;6.092;2023-11-22T04:23:42;5.68;;;4.25;;
23952;SDS011;12163;49.316;6.092;2023-11-22T04:26:09;6.68;;;4.75;;
23952;SDS011;12163;49.316;6.092;2023-11-22T04:28:37;6.47;;;4.75;;
23952;SDS011;12163;49.316;6.092;2023-11-22T04:31:03;6.55;;;5.03;;
23952;SDS011;12163;49.316;6.092;2023-11-22T04:33:30;9.57;;;5.22;;
23952;SDS011;12163;49.316;6.092;2023-11-22T04:35:57;9.80;;;5.03;;
23952;SDS011;12163;49.316;6.092;2023-11-22T04:38:23;6.47;;;4.97;;
23952;SDS011;12163;49.316;6.092;2023-11-22T04:40:51;7.72;;;5.32;;
23952;SDS011;12163;49.316;6.092;2023-11-22T04:43:18;10.45;;;5.47;;
23952;SDS011;12163;49.316;6.092;2023-11-22T04:45:44;6.97;;;5.32;;
23952;SDS011;12163;49.316;6.092;2023-11-22T04:48:11;6.85;;;5.25;;
23952;SDS011;12163;49.316;6.092;2023-11-22T04:50:38;7.28;;;5.25;;
23952;SDS011;12163;49.316;6.092;2023-11-22T04:53:05;9.35;;;6.30;;
23952;SDS011;12163;49.316;6.092;2023-11-22T04:55:31;16.30;;;5.35;;
23952;SDS011;12163;49.316;6.092;2023-11-22T04:57:58;10.45;;;5.93;;
23952;SDS011;12163;49.316;6.092;2023-11-22T05:00:24;7.82;;;5.40;;
23952;SDS011;12163;49.316;6.092;2023-11-22T05:02:51;10.43;;;6.13;;
23952;SDS011;12163;49.316;6.092;2023-11-22T05:05:17;9.15;;;5.90;;
23952;SDS011;12163;49.316;6.092;2023-11-22T05:07:44;12.13;;;6.18;;
23952;SDS011;12163;49.316;6.092;2023-11-22T05:10:11;8.98;;;5.88;;
23952;SDS011;12163;49.316;6.092;2023-11-22T05:12:38;8.95;;;6.00;;
23952;SDS011;12163;49.316;6.092;2023-11-22T05:15:05;7.47;;;5.50;;
23952;SDS011;12163;49.316;6.092;2023-11-22T05:17:33;9.13;;;5.70;;
23952;SDS011;12163;49.316;6.092;2023-11-22T05:20:00;8.57;;;5.60;;
23952;SDS011;12163;49.316;6.092;2023-11-22T05:22:27;10.93;;;6.60;;
23952;SDS011;12163;49.316;6.092;2023-11-22T05:24:54;11.02;;;6.70;;
23952;SDS011;12163;49.316;6.092;2023-11-22T05:27:20;13.85;;;6.80;;
23952;SDS011;12163;49.316;6.092;2023-11-22T05:29:47;12.25;;;6.97;;
23952;SDS011;12163;49.316;6.092;2023-11-22T05:32:20;9.38;;;6.50;;
23952;SDS011;12163;49.316;6.092;2023-11-22T05:34:47;9.82;;;5.95;;
23952;SDS011;12163;49.316;6.092;2023-11-22T05:37:14;10.68;;;6.63;;
23952;SDS011;12163;49.316;6.092;2023-11-22T05:39:40;10.80;;;6.28;;
23952;SDS011;12163;49.316;6.092;2023-11-22T05:42:07;10.57;;;6.22;;
23952;SDS011;12163;49.316;6.092;2023-11-22T05:44:33;10.93;;;7.07;;
23952;SDS011;12163;49.316;6.092;2023-11-22T05:47:00;10.52;;;6.68;;
23952;SDS011;12163;49.316;6.092;2023-11-22T05:49:27;12.70;;;6.95;;
23952;SDS011;12163;49.316;6.092;2023-11-22T05:51:54;11.65;;;6.65;;
23952;SDS011;12163;49.316;6.092;2023-11-22T05:54:21;8.35;;;5.45;;
23952;SDS011;12163;49.316;6.092;2023-11-22T05:56:47;13.00;;;5.55;;
23952;SDS011;12163;49.316;6.092;2023-11-22T05:59:14;9.10;;;5.90;;
23952;SDS011;12163;49.316;6.092;2023-11-22T06:01:40;7.22;;;5.13;;
23952;SDS011;12163;49.316;6.092;2023-11-22T06:04:07;10.18;;;4.90;;
23952;SDS011;12163;49.316;6.092;2023-11-22T06:06:36;7.30;;;4.53;;
23952;SDS011;12163;49.316;6.092;2023-11-22T06:09:03;7.78;;;4.95;;
23952;SDS011;12163;49.316;6.092;2023-11-22T06:11:31;6.38;;;4.10;;
23952;SDS011;12163;49.316;6.092;2023-11-22T06:13:58;7.97;;;4.05;;
23952;SDS011;12163;49.316;6.092;2023-11-22T06:16:25;10.05;;;3.67;;
23952;SDS011;12163;49.316;6.092;2023-11-22T06:18:51;7.97;;;4.90;;
23952;SDS011;12163;49.316;6.092;2023-11-22T06:21:18;5.22;;;4.00;;
23952;SDS011;12163;49.316;6.092;2023-11-22T06:23:45;5.78;;;4.18;;
23952;SDS011;12163;49.316;6.092;2023-11-22T06:26:12;7.63;;;4.68;;
23952;SDS011;12163;49.316;6.092;2023-11-22T06:28:38;8.65;;;5.10;;
23952;SDS011;12163;49.316;6.092;2023-11-22T06:31:05;7.50;;;5.32;;
23952;SDS011;12163;49.316;6.092;2023-11-22T06:33:31;9.25;;;4.70;;
23952;SDS011;12163;49.316;6.092;2023-11-22T06:35:58;9.68;;;5.22;;
23952;SDS011;12163;49.316;6.092;2023-11-22T06:38:24;7.28;;;4.50;;
23952;SDS011;12163;49.316;6.092;2023-11-22T06:40:51;11.57;;;4.75;;
23952;SDS011;12163;49.316;6.092;2023-11-22T06:43:17;9.13;;;4.53;;
23952;SDS011;12163;49.316;6.092;2023-11-22T06:45:44;7.90;;;4.15;;
23952;SDS011;12163;49.316;6.092;2023-11-22T06:48:11;11.18;;;4.93;;
23952;SDS011;12163;49.316;6.092;2023-11-22T06:50:38;12.15;;;4.82;;
23952;SDS011;12163;49.316;6.092;2023-11-22T06:53:05;10.90;;;5.25;;
23952;SDS011;12163;49.316;6.092;2023-11-22T06:55:32;10.05;;;5.05;;
23952;SDS011;12163;49.316;6.092;2023-11-22T06:57:59;9.90;;;5.45;;
23952;SDS011;12163;49.316;6.092;2023-11-22T07:00:26;7.70;;;5.13;;
23952;SDS011;12163;49.316;6.092;2023-11-22T07:02:53;12.90;;;5.88;;
23952;SDS011;12163;49.316;6.092;2023-11-22T07:05:20;8.20;;;5.78;;
23952;SDS011;12163;49.316;6.092;2023-11-22T07:07:47;10.73;;;6.35;;
23952;SDS011;12163;49.316;6.092;2023-11-22T07:10:15;13.48;;;6.85;;
23952;SDS011;12163;49.316;6.092;2023-11-22T07:12:42;10.90;;;5.90;;
23952;SDS011;12163;49.316;6.092;2023-11-22T07:15:09;8.85;;;5.90;;
23952;SDS011;12163;49.316;6.092;2023-11-22T07:17:36;14.52;;;5.93;;
23952;SDS011;12163;49.316;6.092;2023-11-22T07:20:03;14.20;;;5.72;;
23952;SDS011;12163;49.316;6.092;2023-11-22T07:22:35;15.32;;;5.55;;
23952;SDS011;12163;49.316;6.092;2023-11-22T07:25:01;9.45;;;5.90;;
23952;SDS011;12163;49.316;6.092;2023-11-22T07:27:28;8.80;;;5.50;;
23952;SDS011;12163;49.316;6.092;2023-11-22T07:29:55;14.23;;;5.43;;
23952;SDS011;12163;49.316;6.092;2023-11-22T07:32:22;12.38;;;6.28;;
23952;SDS011;12163;49.316;6.092;2023-11-22T07:34:49;13.45;;;6.32;;
23952;SDS011;12163;49.316;6.092;2023-11-22T07:37:15;11.02;;;5.63;;
23952;SDS011;12163;49.316;6.092;2023-11-22T07:39:44;11.25;;;6.68;;
23952;SDS011;12163;49.316;6.092;2023-11-22T07:42:10;12.77;;;6.28;;
23952;SDS011;12163;49.316;6.092;2023-11-22T07:44:37;14.70;;;6.45;;
23952;SDS011;12163;49.316;6.092;2023-11-22T07:47:04;9.55;;;5.93;;
23952;SDS011;12163;49.316;6.092;2023-11-22T07:49:35;11.02;;;5.50;;
23952;SDS011;12163;49.316;6.092;2023-11-22T07:52:05;9.13;;;5.50;;
23952;SDS011;12163;49.316;6.092;2023-11-22T07:54:33;9.35;;;5.75;;
23952;SDS011;12163;49.316;6.092;2023-11-22T07:57:01;9.65;;;6.40;;
23952;SDS011;12163;49.316;6.092;2023-11-22T07:59:28;12.30;;;5.78;;
23952;SDS011;12163;49.316;6.092;2023-11-22T08:01:54;12.43;;;6.22;;
23952;SDS011;12163;49.316;6.092;2023-11-22T08:04:21;18.77;;;6.03;;
23952;SDS011;12163;49.316;6.092;2023-11-22T08:06:49;9.32;;;5.35;;
23952;SDS011;12163;49.316;6.092;2023-11-22T08:09:17;15.52;;;6.55;;
23952;SDS011;12163;49.316;6.092;2023-11-22T08:11:46;10.48;;;5.75;;
23952;SDS011;12163;49.316;6.092;2023-11-22T08:14:12;7.97;;;5.47;;
23952;SDS011;12163;49.316;6.092;2023-11-22T08:16:41;10.68;;;5.63;;
23952;SDS011;12163;49.316;6.092;2023-11-22T08:19:09;9.73;;;5.78;;
23952;SDS011;12163;49.316;6.092;2023-11-22T08:21:36;9.82;;;6.03;;
23952;SDS011;12163;49.316;6.092;2023-11-22T08:24:02;10.88;;;6.13;;
23952;SDS011;12163;49.316;6.092;2023-11-22T08:26:29;10.85;;;5.93;;
23952;SDS011;12163;49.316;6.092;2023-11-22T08:28:56;11.48;;;6.15;;
23952;SDS011;12163;49.316;6.092;2023-11-22T08:31:22;13.02;;;6.10;;
23952;SDS011;12163;49.316;6.092;2023-11-22T08:33:49;11.73;;;5.47;;
23952;SDS011;12163;49.316;6.092;2023-11-22T08:36:15;7.18;;;4.55;;
23952;SDS011;12163;49.316;6.092;2023-11-22T08:38:42;5.68;;;4.25;;
23952;SDS011;12163;49.316;6.092;2023-11-22T08:41:10;10.15;;;5.38;;
23952;SDS011;12163;49.316;6.092;2023-11-22T08:43:40;7.68;;;5.05;;
23952;SDS011;12163;49.316;6.092;2023-11-22T08:46:07;7.72;;;4.57;;
23952;SDS011;12163;49.316;6.092;2023-11-22T08:48:40;8.73;;;5.72;;
23952;SDS011;12163;49.316;6.092;2023-11-22T08:51:08;7.20;;;5.10;;
23952;SDS011;12163;49.316;6.092;2023-11-22T08:53:36;7.95;;;4.32;;
23952;SDS011;12163;49.316;6.092;2023-11-22T08:56:03;6.60;;;4.25;;
23952;SDS011;12163;49.316;6.092;2023-11-22T08:58:32;6.38;;;4.72;;
23952;SDS011;12163;49.316;6.092;2023-11-22T09:01:00;8.95;;;4.80;;
23952;SDS011;12163;49.316;6.092;2023-11-22T09:03:26;10.88;;;7.15;;
23952;SDS011;12163;49.316;6.092;2023-11-22T09:05:55;11.98;;;6.40;;
23952;SDS011;12163;49.316;6.092;2023-11-22T09:08:22;16.75;;;9.32;;
23952;SDS011;12163;49.316;6.092;2023-11-22T09:10:53;9.18;;;5.57;;
23952;SDS011;12163;49.316;6.092;2023-11-22T09:13:20;11.25;;;6.90;;
23952;SDS011;12163;49.316;6.092;2023-11-22T09:15:48;10.43;;;7.05;;
23952;SDS011;12163;49.316;6.092;2023-11-22T09:18:16;12.90;;;7.72;;
23952;SDS011;12163;49.316;6.092;2023-11-22T09:20:43;14.35;;;9.07;;
23952;SDS011;12163;49.316;6.092;2023-11-22T09:23:11;11.85;;;6.88;;
23952;SDS011;12163;49.316;6.092;2023-11-22T09:25:37;6.40;;;4.43;;
23952;SDS011;12163;49.316;6.092;2023-11-22T09:28:05;9.30;;;5.55;;
23952;SDS011;12163;49.316;6.092;2023-11-22T09:30:34;7.07;;;3.78;;
23952;SDS011;12163;49.316;6.092;2023-11-22T09:33:06;6.57;;;4.10;;
23952;SDS011;12163;49.316;6.092;2023-11-22T09:35:33;6.88;;;3.60;;
23952;SDS011;12163;49.316;6.092;2023-11-22T09:38:02;6.50;;;3.70;;
23952;SDS011;12163;49.316;6.092;2023-11-22T09:43:10;10.77;;;5.00;;
23952;SDS011;12163;49.316;6.092;2023-11-22T09:45:38;10.82;;;4.15;;
23952;SDS011;12163;49.316;6.092;2023-11-22T09:48:12;7.97;;;3.35;;
23952;SDS011;12163;49.316;6.092;2023-11-22T09:53:31;4.50;;;2.80;;
23952;SDS011;12163;49.316;6.092;2023-11-22T09:56:11;4.20;;;2.92;;
23952;SDS011;12163;49.316;6.092;2023-11-22T09:58:41;7.15;;;3.13;;
23952;SDS011;12163;49.316;6.092;2023-11-22T10:01:13;3.97;;;3.13;;
23952;SDS011;12163;49.316;6.092;2023-11-22T10:03:41;5.70;;;2.80;;
23952;SDS011;12163;49.316;6.092;2023-11-22T10:06:08;10.13;;;4.65;;
23952;SDS011;12163;49.316;6.092;2023-11-22T10:08:35;12.25;;;6.63;;
23952;SDS011;12163;49.316;6.092;2023-11-22T10:11:05;4.22;;;2.97;;
23952;SDS011;12163;49.316;6.092;2023-11-22T10:13:31;4.47;;;2.75;;
23952;SDS011;12163;49.316;6.092;2023-11-22T10:16:11;8.15;;;2.78;;
23952;SDS011;12163;49.316;6.092;2023-11-22T10:18:41;3.53;;;2.50;;
23952;SDS011;12163;49.316;6.092;2023-11-22T10:23:52;4.72;;;2.17;;
23952;SDS011;12163;49.316;6.092;2023-11-22T10:26:24;7.88;;;4.03;;
23952;SDS011;12163;49.316;6.092;2023-11-22T10:28:52;3.60;;;2.33;;
23952;SDS011;12163;49.316;6.092;2023-11-22T10:31:23;2.63;;;2.10;;
23952;SDS011;12163;49.316;6.092;2023-11-22T10:33:50;5.50;;;2.47;;
23952;SDS011;12163;49.316;6.092;2023-11-22T10:36:19;3.33;;;2.20;;
23952;SDS011;12163;49.316;6.092;2023-11-22T10:38:47;3.03;;;2.30;;
23952;SDS011;12163;49.316;6.092;2023-11-22T10:41:15;4.25;;;2.53;;
23952;SDS011;12163;49.316;6.092;2023-11-22T10:43:42;4.70;;;2.60;;
23952;SDS011;12163;49.316;6.092;2023-11-22T10:46:12;5.57;;;2.50;;
23952;SDS011;12163;49.316;6.092;2023-11-22T10:48:40;6.38;;;3.20;;
23952;SDS011;12163;49.316;6.092;2023-11-22T10:51:08;5.75;;;2.53;;
23952;SDS011;12163;49.316;6.092;2023-11-22T10:53:42;3.23;;;2.60;;
23952;SDS011;12163;49.316;6.092;2023-11-22T10:56:15;2.90;;;2.13;;
23952;SDS011;12163;49.316;6.092;2023-11-22T10:58:47;4.20;;;3.28;;
23952;SDS011;12163;49.316;6.092;2023-11-22T11:01:15;6.03;;;3.10;;
23952;SDS011;12163;49.316;6.092;2023-11-22T11:03:47;6.78;;;3.63;;
23952;SDS011;12163;49.316;6.092;2023-11-22T11:06:29;4.33;;;2.80;;
23952;SDS011;12163;49.316;6.092;2023-11-22T11:09:00;3.95;;;2.80;;
23952;SDS011;12163;49.316;6.092;2023-11-22T11:11:35;7.82;;;2.10;;
23952;SDS011;12163;49.316;6.092;2023-11-22T11:14:03;3.53;;;2.10;;
23952;SDS011;12163;49.316;6.092;2023-11-22T11:16:32;3.78;;;2.40;;
23952;SDS011;12163;49.316;6.092;2023-11-22T11:19:04;2.08;;;1.83;;
23952;SDS011;12163;49.316;6.092;2023-11-22T11:21:33;2.97;;;2.30;;
23952;SDS011;12163;49.316;6.092;2023-11-22T11:24:00;3.45;;;1.98;;
23952;SDS011;12163;49.316;6.092;2023-11-22T11:26:31;3.58;;;2.13;;
23952;SDS011;12163;49.316;6.092;2023-11-22T11:29:01;3.08;;;2.03;;
23952;SDS011;12163;49.316;6.092;2023-11-22T11:31:33;2.25;;;1.85;;
23952;SDS011;12163;49.316;6.092;2023-11-22T11:34:06;6.88;;;2.35;;
23952;SDS011;12163;49.316;6.092;2023-11-22T11:36:33;3.70;;;2.30;;
23952;SDS011;12163;49.316;6.092;2023-11-22T11:39:07;3.35;;;2.70;;
23952;SDS011;12163;49.316;6.092;2023-11-22T11:41:41;2.80;;;2.10;;
23952;SDS011;12163;49.316;6.092;2023-11-22T11:44:08;2.78;;;1.90;;
23952;SDS011;12163;49.316;6.092;2023-11-22T11:46:36;2.63;;;1.90;;
23952;SDS011;12163;49.316;6.092;2023-11-22T11:49:07;4.07;;;2.25;;
23952;SDS011;12163;49.316;6.092;2023-11-22T11:51:35;6.38;;;2.00;;
23952;SDS011;12163;49.316;6.092;2023-11-22T11:54:02;6.95;;;1.98;;
23952;SDS011;12163;49.316;6.092;2023-11-22T11:56:29;2.28;;;2.00;;
23952;SDS011;12163;49.316;6.092;2023-11-22T11:58:56;2.28;;;1.50;;
23952;SDS011;12163;49.316;6.092;2023-11-22T12:01:30;3.13;;;2.00;;
23952;SDS011;12163;49.316;6.092;2023-11-22T12:04:02;4.30;;;1.80;;
23952;SDS011;12163;49.316;6.092;2023-11-22T12:06:29;7.55;;;4.32;;
23952;SDS011;12163;49.316;6.092;2023-11-22T12:08:58;2.90;;;1.80;;
23952;SDS011;12163;49.316;6.092;2023-11-22T12:11:24;6.65;;;1.80;;
23952;SDS011;12163;49.316;6.092;2023-11-22T12:13:51;2.58;;;1.77;;
23952;SDS011;12163;49.316;6.092;2023-11-22T12:16:19;3.55;;;2.08;;
23952;SDS011;12163;49.316;6.092;2023-11-22T12:18:46;2.35;;;1.77;;
23952;SDS011;12163;49.316;6.092;2023-11-22T12:21:18;2.85;;;1.70;;
23952;SDS011;12163;49.316;6.092;2023-11-22T12:23:46;5.07;;;1.75;;
23952;SDS011;12163;49.316;6.092;2023-11-22T12:26:15;3.03;;;1.92;;
23952;SDS011;12163;49.316;6.092;2023-11-22T12:28:47;4.82;;;2.05;;
23952;SDS011;12163;49.316;6.092;2023-11-22T12:31:29;3.78;;;1.67;;
23952;SDS011;12163;49.316;6.092;2023-11-22T12:34:01;4.03;;;1.70;;
23952;SDS011;12163;49.316;6.092;2023-11-22T12:36:28;6.70;;;1.83;;
23952;SDS011;12163;49.316;6.092;2023-11-22T12:38:56;11.00;;;1.55;;
23952;SDS011;12163;49.316;6.092;2023-11-22T12:41:26;2.80;;;1.75;;
23952;SDS011;12163;49.316;6.092;2023-11-22T12:44:04;3.45;;;1.88;;
23952;SDS011;12163;49.316;6.092;2023-11-22T12:46:51;4.10;;;1.85;;
23952;SDS011;12163;49.316;6.092;2023-11-22T12:49:25;7.07;;;1.90;;
23952;SDS011;12163;49.316;6.092;2023-11-22T12:51:53;7.03;;;1.95;;
23952;SDS011;12163;49.316;6.092;2023-11-22T12:54:21;3.22;;;1.90;;
23952;SDS011;12163;49.316;6.092;2023-11-22T12:56:51;4.00;;;2.00;;
23952;SDS011;12163;49.316;6.092;2023-11-22T12:59:24;2.50;;;1.75;;
23952;SDS011;12163;49.316;6.092;2023-11-22T13:01:50;5.22;;;1.92;;
23952;SDS011;12163;49.316;6.092;2023-11-22T13:04:19;4.53;;;2.35;;
23952;SDS011;12163;49.316;6.092;2023-11-22T13:06:45;2.30;;;1.73;;
23952;SDS011;12163;49.316;6.092;2023-11-22T13:09:12;3.42;;;1.70;;
23952;SDS011;12163;49.316;6.092;2023-11-22T13:11:43;3.00;;;1.75;;
23952;SDS011;12163;49.316;6.092;2023-11-22T13:14:10;3.58;;;1.88;;
23952;SDS011;12163;49.316;6.092;2023-11-22T13:16:40;3.83;;;1.92;;
23952;SDS011;12163;49.316;6.092;2023-11-22T13:19:06;5.32;;;1.80;;
23952;SDS011;12163;49.316;6.092;2023-11-22T13:21:35;2.75;;;1.80;;
23952;SDS011;12163;49.316;6.092;2023-11-22T13:24:01;5.07;;;1.73;;
23952;SDS011;12163;49.316;6.092;2023-11-22T13:26:29;2.58;;;1.80;;
23952;SDS011;12163;49.316;6.092;2023-11-22T13:28:57;2.25;;;1.80;;
23952;SDS011;12163;49.316;6.092;2023-11-22T13:31:24;3.53;;;1.52;;
23952;SDS011;12163;49.316;6.092;2023-11-22T13:33:51;2.20;;;1.75;;
23952;SDS011;12163;49.316;6.092;2023-11-22T13:36:17;2.60;;;1.70;;
23952;SDS011;12163;49.316;6.092;2023-11-22T13:38:44;4.05;;;1.83;;
23952;SDS011;12163;49.316;6.092;2023-11-22T13:41:10;5.50;;;2.03;;
23952;SDS011;12163;49.316;6.092;2023-11-22T13:43:37;1.98;;;1.77;;
23952;SDS011;12163;49.316;6.092;2023-11-22T13:46:05;2.75;;;2.10;;
23952;SDS011;12163;49.316;6.092;2023-11-22T13:48:36;3.50;;;2.20;;
23952;SDS011;12163;49.316;6.092;2023-11-22T13:51:03;3.97;;;1.92;;
23952;SDS011;12163;49.316;6.092;2023-11-22T13:53:33;3.72;;;1.63;;
23952;SDS011;12163;49.316;6.092;2023-11-22T13:56:03;2.63;;;1.58;;
23952;SDS011;12163;49.316;6.092;2023-11-22T13:58:35;2.90;;;1.80;;
23952;SDS011;12163;49.316;6.092;2023-11-22T14:01:02;5.30;;;1.58;;
23952;SDS011;12163;49.316;6.092;2023-11-22T14:03:32;1.75;;;1.42;;
23952;SDS011;12163;49.316;6.092;2023-11-22T14:05:59;3.50;;;1.50;;
23952;SDS011;12163;49.316;6.092;2023-11-22T14:08:26;2.38;;;1.55;;
23952;SDS011;12163;49.316;6.092;2023-11-22T14:10:53;8.20;;;1.50;;
23952;SDS011;12163;49.316;6.092;2023-11-22T14:13:20;2.03;;;1.40;;
23952;SDS011;12163;49.316;6.092;2023-11-22T14:15:47;2.05;;;1.30;;
23952;SDS011;12163;49.316;6.092;2023-11-22T14:18:14;2.15;;;1.15;;
23952;SDS011;12163;49.316;6.092;2023-11-22T14:20:41;2.70;;;1.50;;
23952;SDS011;12163;49.316;6.092;2023-11-22T14:23:07;2.97;;;1.40;;
23952;SDS011;12163;49.316;6.092;2023-11-22T14:25:34;4.03;;;1.58;;
23952;SDS011;12163;49.316;6.092;2023-11-22T14:28:00;4.95;;;1.90;;
23952;SDS011;12163;49.316;6.092;2023-11-22T14:30:27;2.70;;;1.60;;
23952;SDS011;12163;49.316;6.092;2023-11-22T14:32:55;4.32;;;2.60;;
23952;SDS011;12163;49.316;6.092;2023-11-22T14:35:25;11.70;;;2.17;;
23952;SDS011;12163;49.316;6.092;2023-11-22T14:37:51;7.25;;;2.13;;
23952;SDS011;12163;49.316;6.092;2023-11-22T14:40:19;14.20;;;2.33;;
23952;SDS011;12163;49.316;6.092;2023-11-22T14:42:46;6.97;;;1.92;;
23952;SDS011;12163;49.316;6.092;2023-11-22T14:45:16;5.28;;;1.98;;
23952;SDS011;12163;49.316;6.092;2023-11-22T14:47:46;7.07;;;3.15;;
23952;SDS011;12163;49.316;6.092;2023-11-22T14:50:13;4.00;;;1.95;;
23952;SDS011;12163;49.316;6.092;2023-11-22T14:52:42;11.30;;;4.72;;
23952;SDS011;12163;49.316;6.092;2023-11-22T14:55:10;13.85;;;6.00;;
23952;SDS011;12163;49.316;6.092;2023-11-22T14:57:38;7.53;;;4.35;;